sensor_id;sensor_type;location;lat;lon;timestamp;P1;durP1;ratioP1;P2;durP2;ratioP2
32523;SDS011;18965;52.242;20.886;2022-07-23T00:02:06;12.43;;;9.10;;
32523;SDS011;18965;52.242;20.886;2022-07-23T00:04:32;14.07;;;10.52;;
32523;SDS011;18965;52.242;20.886;2022-07-23T00:06:59;13.20;;;10.00;;
32523;SDS011;18965;52.242;20.886;2022-07-23T00:09:25;12.52;;;9.75;;
32523;SDS011;18965;52.242;20.886;2022-07-23T00:11:51;11.52;;;9.50;;
32523;SDS011;18965;52.242;20.886;2022-07-23T00:14:17;13.60;;;9.50;;
32523;SDS011;18965;52.242;20.886;2022-07-23T00:16:42;11.55;;;10.00;;
32523;SDS011;18965;52.242;20.886;2022-07-23T00:19:08;11.98;;;10.32;;
32523;SDS011;18965;52.242;20.886;2022-07-23T00:21:34;13.77;;;9.93;;
32523;SDS011;18965;52.242;20.886;2022-07-23T00:24:00;14.25;;;10.45;;
32523;SDS011;18965;52.242;20.886;2022-07-23T00:26:25;12.55;;;10.35;;
32523;SDS011;18965;52.242;20.886;2022-07-23T00:28:51;13.73;;;10.40;;
32523;SDS011;18965;52.242;20.886;2022-07-23T00:31:17;10.82;;;9.68;;
32523;SDS011;18965;52.242;20.886;2022-07-23T00:33:43;14.43;;;10.73;;
32523;SDS011;18965;52.242;20.886;2022-07-23T00:36:09;13.98;;;10.82;;
32523;SDS011;18965;52.242;20.886;2022-07-23T00:38:34;12.68;;;11.07;;
32523;SDS011;18965;52.242;20.886;2022-07-23T00:41:00;14.90;;;11.30;;
32523;SDS011;18965;52.242;20.886;2022-07-23T00:43:26;15.35;;;11.60;;
32523;SDS011;18965;52.242;20.886;2022-07-23T00:45:51;12.98;;;11.00;;
32523;SDS011;18965;52.242;20.886;2022-07-23T00:48:17;13.70;;;11.93;;
32523;SDS011;18965;52.242;20.886;2022-07-23T00:50:43;18.05;;;12.43;;
32523;SDS011;18965;52.242;20.886;2022-07-23T00:53:09;17.88;;;12.93;;
32523;SDS011;18965;52.242;20.886;2022-07-23T00:55:35;19.67;;;13.40;;
32523;SDS011;18965;52.242;20.886;2022-07-23T00:58:02;16.80;;;12.55;;
32523;SDS011;18965;52.242;20.886;2022-07-23T01:00:29;17.27;;;13.35;;
32523;SDS011;18965;52.242;20.886;2022-07-23T01:02:55;14.35;;;11.75;;
32523;SDS011;18965;52.242;20.886;2022-07-23T01:05:21;16.33;;;12.18;;
32523;SDS011;18965;52.242;20.886;2022-07-23T01:07:48;20.02;;;13.23;;
32523;SDS011;18965;52.242;20.886;2022-07-23T01:10:14;16.52;;;12.30;;
32523;SDS011;18965;52.242;20.886;2022-07-23T01:12:56;15.23;;;12.32;;
32523;SDS011;18965;52.242;20.886;2022-07-23T01:15:22;13.32;;;11.93;;
32523;SDS011;18965;52.242;20.886;2022-07-23T01:17:48;14.45;;;12.30;;
32523;SDS011;18965;52.242;20.886;2022-07-23T01:20:14;14.98;;;11.73;;
32523;SDS011;18965;52.242;20.886;2022-07-23T01:22:40;13.60;;;11.88;;
32523;SDS011;18965;52.242;20.886;2022-07-23T01:25:07;15.48;;;12.48;;
32523;SDS011;18965;52.242;20.886;2022-07-23T01:27:33;15.77;;;11.70;;
32523;SDS011;18965;52.242;20.886;2022-07-23T01:29:59;14.05;;;11.20;;
32523;SDS011;18965;52.242;20.886;2022-07-23T01:32:26;14.10;;;12.02;;
32523;SDS011;18965;52.242;20.886;2022-07-23T01:34:51;14.60;;;11.95;;
32523;SDS011;18965;52.242;20.886;2022-07-23T01:37:17;14.60;;;11.10;;
32523;SDS011;18965;52.242;20.886;2022-07-23T01:39:43;14.43;;;11.40;;
32523;SDS011;18965;52.242;20.886;2022-07-23T01:42:09;13.40;;;11.13;;
32523;SDS011;18965;52.242;20.886;2022-07-23T01:44:34;14.70;;;11.45;;
32523;SDS011;18965;52.242;20.886;2022-07-23T01:47:00;13.75;;;10.70;;
32523;SDS011;18965;52.242;20.886;2022-07-23T01:49:26;15.82;;;11.07;;
32523;SDS011;18965;52.242;20.886;2022-07-23T01:51:52;13.15;;;11.75;;
32523;SDS011;18965;52.242;20.886;2022-07-23T01:54:31;15.40;;;11.07;;
32523;SDS011;18965;52.242;20.886;2022-07-23T01:56:58;15.48;;;11.50;;
32523;SDS011;18965;52.242;20.886;2022-07-23T01:59:24;17.02;;;11.57;;
32523;SDS011;18965;52.242;20.886;2022-07-23T02:01:51;12.32;;;10.60;;
32523;SDS011;18965;52.242;20.886;2022-07-23T02:04:17;15.48;;;11.55;;
32523;SDS011;18965;52.242;20.886;2022-07-23T02:06:43;15.25;;;11.63;;
32523;SDS011;18965;52.242;20.886;2022-07-23T02:09:09;16.27;;;11.70;;
32523;SDS011;18965;52.242;20.886;2022-07-23T02:11:35;14.90;;;12.18;;
32523;SDS011;18965;52.242;20.886;2022-07-23T02:14:01;16.73;;;12.27;;
32523;SDS011;18965;52.242;20.886;2022-07-23T02:16:27;13.60;;;11.60;;
32523;SDS011;18965;52.242;20.886;2022-07-23T02:18:53;15.30;;;11.35;;
32523;SDS011;18965;52.242;20.886;2022-07-23T02:21:18;15.10;;;11.70;;
32523;SDS011;18965;52.242;20.886;2022-07-23T02:23:44;19.50;;;13.10;;
32523;SDS011;18965;52.242;20.886;2022-07-23T02:26:10;15.40;;;12.27;;
32523;SDS011;18965;52.242;20.886;2022-07-23T02:28:36;15.07;;;12.68;;
32523;SDS011;18965;52.242;20.886;2022-07-23T02:31:01;16.85;;;13.40;;
32523;SDS011;18965;52.242;20.886;2022-07-23T02:33:28;17.83;;;13.05;;
32523;SDS011;18965;52.242;20.886;2022-07-23T02:35:54;19.73;;;12.32;;
32523;SDS011;18965;52.242;20.886;2022-07-23T02:38:20;15.32;;;12.98;;
32523;SDS011;18965;52.242;20.886;2022-07-23T02:40:46;19.70;;;12.85;;
32523;SDS011;18965;52.242;20.886;2022-07-23T02:43:12;22.27;;;13.60;;
32523;SDS011;18965;52.242;20.886;2022-07-23T02:45:38;17.20;;;12.38;;
32523;SDS011;18965;52.242;20.886;2022-07-23T02:48:03;22.20;;;14.30;;
32523;SDS011;18965;52.242;20.886;2022-07-23T02:50:29;22.15;;;13.20;;
32523;SDS011;18965;52.242;20.886;2022-07-23T02:52:55;16.80;;;12.77;;
32523;SDS011;18965;52.242;20.886;2022-07-23T02:55:21;14.52;;;12.13;;
32523;SDS011;18965;52.242;20.886;2022-07-23T02:57:47;15.95;;;12.45;;
32523;SDS011;18965;52.242;20.886;2022-07-23T03:00:13;15.60;;;12.38;;
32523;SDS011;18965;52.242;20.886;2022-07-23T03:02:38;20.67;;;12.65;;
32523;SDS011;18965;52.242;20.886;2022-07-23T03:05:04;18.08;;;12.52;;
32523;SDS011;18965;52.242;20.886;2022-07-23T03:07:30;20.10;;;12.63;;
32523;SDS011;18965;52.242;20.886;2022-07-23T03:09:56;17.50;;;13.27;;
32523;SDS011;18965;52.242;20.886;2022-07-23T03:12:22;15.88;;;11.55;;
32523;SDS011;18965;52.242;20.886;2022-07-23T03:14:48;14.60;;;12.55;;
32523;SDS011;18965;52.242;20.886;2022-07-23T03:17:14;18.30;;;12.18;;
32523;SDS011;18965;52.242;20.886;2022-07-23T03:19:39;16.70;;;12.35;;
32523;SDS011;18965;52.242;20.886;2022-07-23T03:22:05;15.95;;;12.27;;
32523;SDS011;18965;52.242;20.886;2022-07-23T03:24:32;16.65;;;11.95;;
32523;SDS011;18965;52.242;20.886;2022-07-23T03:27:16;19.25;;;12.30;;
32523;SDS011;18965;52.242;20.886;2022-07-23T03:29:42;18.30;;;12.48;;
32523;SDS011;18965;52.242;20.886;2022-07-23T03:32:08;16.67;;;11.88;;
32523;SDS011;18965;52.242;20.886;2022-07-23T03:34:34;17.95;;;12.93;;
32523;SDS011;18965;52.242;20.886;2022-07-23T03:37:01;17.27;;;12.80;;
32523;SDS011;18965;52.242;20.886;2022-07-23T03:39:27;15.48;;;11.60;;
32523;SDS011;18965;52.242;20.886;2022-07-23T03:41:53;15.75;;;11.85;;
32523;SDS011;18965;52.242;20.886;2022-07-23T03:44:18;14.23;;;11.25;;
32523;SDS011;18965;52.242;20.886;2022-07-23T03:46:44;15.18;;;11.52;;
32523;SDS011;18965;52.242;20.886;2022-07-23T03:49:10;18.65;;;11.95;;
32523;SDS011;18965;52.242;20.886;2022-07-23T03:51:35;20.58;;;12.73;;
32523;SDS011;18965;52.242;20.886;2022-07-23T03:54:01;15.75;;;12.27;;
32523;SDS011;18965;52.242;20.886;2022-07-23T03:56:27;16.80;;;12.43;;
32523;SDS011;18965;52.242;20.886;2022-07-23T03:58:53;18.33;;;13.00;;
32523;SDS011;18965;52.242;20.886;2022-07-23T04:01:19;21.50;;;11.95;;
32523;SDS011;18965;52.242;20.886;2022-07-23T04:03:44;17.00;;;12.05;;
32523;SDS011;18965;52.242;20.886;2022-07-23T04:06:11;18.67;;;12.07;;
32523;SDS011;18965;52.242;20.886;2022-07-23T04:08:37;19.15;;;12.65;;
32523;SDS011;18965;52.242;20.886;2022-07-23T04:11:03;16.67;;;12.40;;
32523;SDS011;18965;52.242;20.886;2022-07-23T04:13:29;15.38;;;12.90;;
32523;SDS011;18965;52.242;20.886;2022-07-23T04:15:55;18.85;;;12.20;;
32523;SDS011;18965;52.242;20.886;2022-07-23T04:18:20;16.95;;;12.27;;
32523;SDS011;18965;52.242;20.886;2022-07-23T04:20:48;17.98;;;12.77;;
32523;SDS011;18965;52.242;20.886;2022-07-23T04:23:16;16.45;;;12.02;;
32523;SDS011;18965;52.242;20.886;2022-07-23T04:25:42;16.58;;;11.82;;
32523;SDS011;18965;52.242;20.886;2022-07-23T04:28:07;14.73;;;11.40;;
32523;SDS011;18965;52.242;20.886;2022-07-23T04:30:33;17.23;;;13.02;;
32523;SDS011;18965;52.242;20.886;2022-07-23T04:32:59;16.05;;;12.35;;
32523;SDS011;18965;52.242;20.886;2022-07-23T04:35:25;19.90;;;12.63;;
32523;SDS011;18965;52.242;20.886;2022-07-23T04:37:51;15.68;;;11.88;;
32523;SDS011;18965;52.242;20.886;2022-07-23T04:40:17;15.82;;;12.18;;
32523;SDS011;18965;52.242;20.886;2022-07-23T04:42:43;16.05;;;12.70;;
32523;SDS011;18965;52.242;20.886;2022-07-23T04:45:09;13.50;;;11.07;;
32523;SDS011;18965;52.242;20.886;2022-07-23T04:47:35;18.00;;;13.52;;
32523;SDS011;18965;52.242;20.886;2022-07-23T04:50:00;17.30;;;12.70;;
32523;SDS011;18965;52.242;20.886;2022-07-23T04:52:26;17.42;;;12.55;;
32523;SDS011;18965;52.242;20.886;2022-07-23T04:54:52;17.20;;;12.20;;
32523;SDS011;18965;52.242;20.886;2022-07-23T04:57:18;17.40;;;12.77;;
32523;SDS011;18965;52.242;20.886;2022-07-23T04:59:43;21.38;;;13.48;;
32523;SDS011;18965;52.242;20.886;2022-07-23T05:02:09;19.38;;;12.77;;
32523;SDS011;18965;52.242;20.886;2022-07-23T05:04:35;19.10;;;13.32;;
32523;SDS011;18965;52.242;20.886;2022-07-23T05:07:01;15.32;;;12.98;;
32523;SDS011;18965;52.242;20.886;2022-07-23T05:09:26;16.52;;;11.98;;
32523;SDS011;18965;52.242;20.886;2022-07-23T05:11:52;15.73;;;11.95;;
32523;SDS011;18965;52.242;20.886;2022-07-23T05:14:18;14.75;;;12.75;;
32523;SDS011;18965;52.242;20.886;2022-07-23T05:16:44;16.83;;;12.77;;
32523;SDS011;18965;52.242;20.886;2022-07-23T05:19:09;14.25;;;11.32;;
32523;SDS011;18965;52.242;20.886;2022-07-23T05:21:35;16.50;;;11.80;;
32523;SDS011;18965;52.242;20.886;2022-07-23T05:24:01;17.80;;;11.73;;
32523;SDS011;18965;52.242;20.886;2022-07-23T05:26:27;13.55;;;11.25;;
32523;SDS011;18965;52.242;20.886;2022-07-23T05:28:52;15.45;;;10.93;;
32523;SDS011;18965;52.242;20.886;2022-07-23T05:31:18;15.95;;;11.40;;
32523;SDS011;18965;52.242;20.886;2022-07-23T05:33:44;18.95;;;12.57;;
32523;SDS011;18965;52.242;20.886;2022-07-23T05:36:10;15.32;;;12.40;;
32523;SDS011;18965;52.242;20.886;2022-07-23T05:38:35;17.40;;;12.75;;
32523;SDS011;18965;52.242;20.886;2022-07-23T05:41:02;17.73;;;12.07;;
32523;SDS011;18965;52.242;20.886;2022-07-23T05:43:28;13.82;;;11.35;;
32523;SDS011;18965;52.242;20.886;2022-07-23T05:45:53;14.30;;;12.32;;
32523;SDS011;18965;52.242;20.886;2022-07-23T05:48:19;16.25;;;11.80;;
32523;SDS011;18965;52.242;20.886;2022-07-23T05:50:46;13.65;;;12.05;;
32523;SDS011;18965;52.242;20.886;2022-07-23T05:53:12;13.27;;;11.75;;
32523;SDS011;18965;52.242;20.886;2022-07-23T05:55:38;20.50;;;12.55;;
32523;SDS011;18965;52.242;20.886;2022-07-23T05:58:04;12.80;;;10.68;;
32523;SDS011;18965;52.242;20.886;2022-07-23T06:00:30;14.70;;;11.77;;
32523;SDS011;18965;52.242;20.886;2022-07-23T06:02:56;14.02;;;11.40;;
32523;SDS011;18965;52.242;20.886;2022-07-23T06:05:22;12.20;;;10.90;;
32523;SDS011;18965;52.242;20.886;2022-07-23T06:07:49;15.13;;;10.85;;
32523;SDS011;18965;52.242;20.886;2022-07-23T06:10:15;14.55;;;12.02;;
32523;SDS011;18965;52.242;20.886;2022-07-23T06:12:41;13.73;;;11.30;;
32523;SDS011;18965;52.242;20.886;2022-07-23T06:15:07;15.07;;;11.20;;
32523;SDS011;18965;52.242;20.886;2022-07-23T06:17:33;15.68;;;11.95;;
32523;SDS011;18965;52.242;20.886;2022-07-23T06:20:00;16.80;;;10.95;;
32523;SDS011;18965;52.242;20.886;2022-07-23T06:22:26;11.65;;;10.55;;
32523;SDS011;18965;52.242;20.886;2022-07-23T06:24:52;13.52;;;11.07;;
32523;SDS011;18965;52.242;20.886;2022-07-23T06:27:18;13.60;;;10.52;;
32523;SDS011;18965;52.242;20.886;2022-07-23T06:29:44;12.73;;;9.90;;
32523;SDS011;18965;52.242;20.886;2022-07-23T06:32:09;11.10;;;10.00;;
32523;SDS011;18965;52.242;20.886;2022-07-23T06:34:35;11.13;;;9.57;;
32523;SDS011;18965;52.242;20.886;2022-07-23T06:37:01;12.45;;;9.02;;
32523;SDS011;18965;52.242;20.886;2022-07-23T06:39:27;10.40;;;9.35;;
32523;SDS011;18965;52.242;20.886;2022-07-23T06:41:54;11.27;;;9.27;;
32523;SDS011;18965;52.242;20.886;2022-07-23T06:44:20;11.05;;;9.95;;
32523;SDS011;18965;52.242;20.886;2022-07-23T06:46:45;10.38;;;9.30;;
32523;SDS011;18965;52.242;20.886;2022-07-23T06:49:11;10.55;;;9.48;;
32523;SDS011;18965;52.242;20.886;2022-07-23T06:51:37;11.35;;;9.15;;
32523;SDS011;18965;52.242;20.886;2022-07-23T06:54:04;9.90;;;8.90;;
32523;SDS011;18965;52.242;20.886;2022-07-23T06:56:30;10.82;;;9.20;;
32523;SDS011;18965;52.242;20.886;2022-07-23T06:58:56;11.82;;;9.40;;
32523;SDS011;18965;52.242;20.886;2022-07-23T07:01:22;11.68;;;9.18;;
32523;SDS011;18965;52.242;20.886;2022-07-23T07:03:48;12.45;;;9.73;;
32523;SDS011;18965;52.242;20.886;2022-07-23T07:06:14;10.73;;;8.13;;
32523;SDS011;18965;52.242;20.886;2022-07-23T07:08:39;10.93;;;8.60;;
32523;SDS011;18965;52.242;20.886;2022-07-23T07:11:05;9.63;;;8.60;;
32523;SDS011;18965;52.242;20.886;2022-07-23T07:13:32;11.07;;;8.38;;
32523;SDS011;18965;52.242;20.886;2022-07-23T07:15:57;10.85;;;8.48;;
32523;SDS011;18965;52.242;20.886;2022-07-23T07:18:23;11.60;;;9.25;;
32523;SDS011;18965;52.242;20.886;2022-07-23T07:20:49;8.93;;;8.05;;
32523;SDS011;18965;52.242;20.886;2022-07-23T07:23:14;8.88;;;7.68;;
32523;SDS011;18965;52.242;20.886;2022-07-23T07:25:40;8.43;;;7.63;;
32523;SDS011;18965;52.242;20.886;2022-07-23T07:28:06;9.00;;;8.00;;
32523;SDS011;18965;52.242;20.886;2022-07-23T07:30:32;11.50;;;8.32;;
32523;SDS011;18965;52.242;20.886;2022-07-23T07:32:58;12.93;;;8.70;;
32523;SDS011;18965;52.242;20.886;2022-07-23T07:35:24;11.70;;;8.80;;
32523;SDS011;18965;52.242;20.886;2022-07-23T07:37:50;8.48;;;7.68;;
32523;SDS011;18965;52.242;20.886;2022-07-23T07:40:15;9.77;;;7.63;;
32523;SDS011;18965;52.242;20.886;2022-07-23T07:42:48;8.18;;;7.32;;
32523;SDS011;18965;52.242;20.886;2022-07-23T07:45:19;9.43;;;7.60;;
32523;SDS011;18965;52.242;20.886;2022-07-23T07:47:46;9.18;;;7.72;;
32523;SDS011;18965;52.242;20.886;2022-07-23T07:50:12;10.80;;;7.32;;
32523;SDS011;18965;52.242;20.886;2022-07-23T07:52:39;9.05;;;7.53;;
32523;SDS011;18965;52.242;20.886;2022-07-23T07:55:05;11.80;;;7.20;;
32523;SDS011;18965;52.242;20.886;2022-07-23T07:57:32;8.65;;;6.95;;
32523;SDS011;18965;52.242;20.886;2022-07-23T07:59:58;7.63;;;6.85;;
32523;SDS011;18965;52.242;20.886;2022-07-23T08:02:23;7.60;;;6.90;;
32523;SDS011;18965;52.242;20.886;2022-07-23T08:04:49;10.68;;;6.85;;
32523;SDS011;18965;52.242;20.886;2022-07-23T08:07:15;8.15;;;7.00;;
32523;SDS011;18965;52.242;20.886;2022-07-23T08:09:41;8.98;;;7.32;;
32523;SDS011;18965;52.242;20.886;2022-07-23T08:12:07;8.57;;;6.85;;
32523;SDS011;18965;52.242;20.886;2022-07-23T08:14:33;7.65;;;6.78;;
32523;SDS011;18965;52.242;20.886;2022-07-23T08:16:59;11.63;;;7.18;;
32523;SDS011;18965;52.242;20.886;2022-07-23T08:19:25;8.13;;;7.32;;
32523;SDS011;18965;52.242;20.886;2022-07-23T08:21:51;10.00;;;7.07;;
32523;SDS011;18965;52.242;20.886;2022-07-23T08:24:20;8.13;;;7.30;;
32523;SDS011;18965;52.242;20.886;2022-07-23T08:26:51;10.75;;;7.43;;
32523;SDS011;18965;52.242;20.886;2022-07-23T08:29:17;10.48;;;7.68;;
32523;SDS011;18965;52.242;20.886;2022-07-23T08:31:46;10.05;;;7.50;;
32523;SDS011;18965;52.242;20.886;2022-07-23T08:34:12;8.10;;;7.28;;
32523;SDS011;18965;52.242;20.886;2022-07-23T08:36:38;8.60;;;6.97;;
32523;SDS011;18965;52.242;20.886;2022-07-23T08:39:04;7.93;;;7.18;;
32523;SDS011;18965;52.242;20.886;2022-07-23T08:41:33;8.63;;;7.72;;
32523;SDS011;18965;52.242;20.886;2022-07-23T08:44:03;10.35;;;7.70;;
32523;SDS011;18965;52.242;20.886;2022-07-23T08:46:32;9.02;;;7.40;;
32523;SDS011;18965;52.242;20.886;2022-07-23T08:48:59;7.72;;;6.93;;
32523;SDS011;18965;52.242;20.886;2022-07-23T08:51:27;8.88;;;7.50;;
32523;SDS011;18965;52.242;20.886;2022-07-23T08:53:56;8.32;;;7.28;;
32523;SDS011;18965;52.242;20.886;2022-07-23T08:56:26;9.85;;;7.93;;
32523;SDS011;18965;52.242;20.886;2022-07-23T08:58:54;9.25;;;7.90;;
32523;SDS011;18965;52.242;20.886;2022-07-23T09:01:20;9.45;;;7.40;;
32523;SDS011;18965;52.242;20.886;2022-07-23T09:03:58;8.63;;;7.50;;
32523;SDS011;18965;52.242;20.886;2022-07-23T09:06:26;9.77;;;7.35;;
32523;SDS011;18965;52.242;20.886;2022-07-23T09:08:56;7.57;;;6.88;;
32523;SDS011;18965;52.242;20.886;2022-07-23T09:14:51;7.95;;;6.85;;
32523;SDS011;18965;52.242;20.886;2022-07-23T09:17:17;7.50;;;6.57;;
32523;SDS011;18965;52.242;20.886;2022-07-23T09:19:44;7.53;;;6.82;;
32523;SDS011;18965;52.242;20.886;2022-07-23T09:22:26;8.10;;;6.68;;
32523;SDS011;18965;52.242;20.886;2022-07-23T09:25:02;7.53;;;6.80;;
32523;SDS011;18965;52.242;20.886;2022-07-23T09:27:53;9.30;;;6.63;;
32523;SDS011;18965;52.242;20.886;2022-07-23T09:30:23;9.57;;;6.47;;
32523;SDS011;18965;52.242;20.886;2022-07-23T09:33:10;7.53;;;6.47;;
32523;SDS011;18965;52.242;20.886;2022-07-23T09:38:14;7.50;;;6.45;;
32523;SDS011;18965;52.242;20.886;2022-07-23T09:40:44;6.47;;;5.78;;
32523;SDS011;18965;52.242;20.886;2022-07-23T09:43:11;7.80;;;6.25;;
32523;SDS011;18965;52.242;20.886;2022-07-23T09:45:51;6.38;;;5.70;;
32523;SDS011;18965;52.242;20.886;2022-07-23T09:48:16;8.70;;;5.78;;
32523;SDS011;18965;52.242;20.886;2022-07-23T09:50:43;13.07;;;6.18;;
32523;SDS011;18965;52.242;20.886;2022-07-23T09:53:12;8.07;;;5.93;;
32523;SDS011;18965;52.242;20.886;2022-07-23T09:55:50;7.70;;;6.00;;
32523;SDS011;18965;52.242;20.886;2022-07-23T09:58:21;7.22;;;6.50;;
32523;SDS011;18965;52.242;20.886;2022-07-23T10:00:47;6.43;;;5.53;;
32523;SDS011;18965;52.242;20.886;2022-07-23T10:03:15;8.40;;;6.63;;
32523;SDS011;18965;52.242;20.886;2022-07-23T10:05:42;7.57;;;5.68;;
32523;SDS011;18965;52.242;20.886;2022-07-23T10:08:11;9.40;;;5.88;;
32523;SDS011;18965;52.242;20.886;2022-07-23T10:10:40;9.60;;;5.80;;
32523;SDS011;18965;52.242;20.886;2022-07-23T10:13:06;6.78;;;5.93;;
32523;SDS011;18965;52.242;20.886;2022-07-23T10:15:51;8.15;;;5.72;;
32523;SDS011;18965;52.242;20.886;2022-07-23T10:18:17;7.50;;;5.78;;
32523;SDS011;18965;52.242;20.886;2022-07-23T10:20:43;9.02;;;5.78;;
32523;SDS011;18965;52.242;20.886;2022-07-23T10:23:26;6.53;;;5.82;;
32523;SDS011;18965;52.242;20.886;2022-07-23T10:26:05;7.50;;;6.30;;
32523;SDS011;18965;52.242;20.886;2022-07-23T10:29:12;7.72;;;6.30;;
32523;SDS011;18965;52.242;20.886;2022-07-23T10:37:34;6.40;;;5.70;;
32523;SDS011;18965;52.242;20.886;2022-07-23T10:42:40;6.45;;;5.85;;
32523;SDS011;18965;52.242;20.886;2022-07-23T10:47:49;7.00;;;6.22;;
32523;SDS011;18965;52.242;20.886;2022-07-23T10:50:28;7.53;;;5.90;;
32523;SDS011;18965;52.242;20.886;2022-07-23T10:58:00;6.45;;;5.85;;
32523;SDS011;18965;52.242;20.886;2022-07-23T11:00:28;7.47;;;5.85;;
32523;SDS011;18965;52.242;20.886;2022-07-23T11:02:59;9.18;;;6.68;;
32523;SDS011;18965;52.242;20.886;2022-07-23T11:05:39;7.55;;;6.28;;
32523;SDS011;18965;52.242;20.886;2022-07-23T11:08:17;6.25;;;5.65;;
32523;SDS011;18965;52.242;20.886;2022-07-23T11:32:18;7.20;;;6.03;;
32523;SDS011;18965;52.242;20.886;2022-07-23T11:34:49;6.97;;;6.30;;
32523;SDS011;18965;52.242;20.886;2022-07-23T11:37:28;9.80;;;6.93;;
32523;SDS011;18965;52.242;20.886;2022-07-23T11:39:55;8.07;;;6.57;;
32523;SDS011;18965;52.242;20.886;2022-07-23T11:42:22;7.38;;;6.68;;
32523;SDS011;18965;52.242;20.886;2022-07-23T11:44:49;8.48;;;6.65;;
32523;SDS011;18965;52.242;20.886;2022-07-23T11:47:20;7.68;;;6.32;;
32523;SDS011;18965;52.242;20.886;2022-07-23T11:49:56;8.05;;;6.28;;
32523;SDS011;18965;52.242;20.886;2022-07-23T11:52:25;10.65;;;6.72;;
32523;SDS011;18965;52.242;20.886;2022-07-23T11:55:10;10.18;;;6.47;;
32523;SDS011;18965;52.242;20.886;2022-07-23T11:57:37;8.70;;;6.28;;
32523;SDS011;18965;52.242;20.886;2022-07-23T12:02:48;7.97;;;7.18;;
32523;SDS011;18965;52.242;20.886;2022-07-23T12:05:20;9.75;;;7.03;;
32523;SDS011;18965;52.242;20.886;2022-07-23T12:07:48;7.50;;;6.30;;
32523;SDS011;18965;52.242;20.886;2022-07-23T12:10:20;6.82;;;6.22;;
32523;SDS011;18965;52.242;20.886;2022-07-23T12:12:52;9.15;;;6.55;;
32523;SDS011;18965;52.242;20.886;2022-07-23T12:15:26;8.23;;;6.10;;
32523;SDS011;18965;52.242;20.886;2022-07-23T12:17:55;7.45;;;6.75;;
32523;SDS011;18965;52.242;20.886;2022-07-23T12:20:22;8.15;;;6.20;;
32523;SDS011;18965;52.242;20.886;2022-07-23T12:22:51;6.82;;;6.07;;
32523;SDS011;18965;52.242;20.886;2022-07-23T12:25:21;8.00;;;6.70;;
32523;SDS011;18965;52.242;20.886;2022-07-23T12:30:38;10.88;;;6.82;;
32523;SDS011;18965;52.242;20.886;2022-07-23T12:33:09;7.25;;;6.55;;
32523;SDS011;18965;52.242;20.886;2022-07-23T12:35:39;9.00;;;6.22;;
32523;SDS011;18965;52.242;20.886;2022-07-23T12:38:09;9.77;;;6.35;;
32523;SDS011;18965;52.242;20.886;2022-07-23T12:45:54;11.30;;;6.45;;
32523;SDS011;18965;52.242;20.886;2022-07-23T12:48:27;8.27;;;6.78;;
32523;SDS011;18965;52.242;20.886;2022-07-23T12:51:15;8.88;;;6.43;;
32523;SDS011;18965;52.242;20.886;2022-07-23T12:53:47;6.80;;;6.10;;
32523;SDS011;18965;52.242;20.886;2022-07-23T12:56:18;8.10;;;7.07;;
32523;SDS011;18965;52.242;20.886;2022-07-23T12:58:53;7.63;;;6.60;;
32523;SDS011;18965;52.242;20.886;2022-07-23T13:01:32;6.95;;;5.95;;
32523;SDS011;18965;52.242;20.886;2022-07-23T13:04:17;6.93;;;6.20;;
32523;SDS011;18965;52.242;20.886;2022-07-23T13:06:49;7.65;;;6.85;;
32523;SDS011;18965;52.242;20.886;2022-07-23T13:09:27;7.15;;;6.45;;
32523;SDS011;18965;52.242;20.886;2022-07-23T13:11:54;8.43;;;6.93;;
32523;SDS011;18965;52.242;20.886;2022-07-23T13:14:21;7.18;;;6.47;;
32523;SDS011;18965;52.242;20.886;2022-07-23T13:16:51;8.25;;;6.30;;
32523;SDS011;18965;52.242;20.886;2022-07-23T13:19:18;9.23;;;6.60;;
32523;SDS011;18965;52.242;20.886;2022-07-23T13:21:44;7.15;;;6.35;;
32523;SDS011;18965;52.242;20.886;2022-07-23T13:24:11;8.15;;;6.68;;
32523;SDS011;18965;52.242;20.886;2022-07-23T13:26:37;7.07;;;6.13;;
32523;SDS011;18965;52.242;20.886;2022-07-23T13:29:06;7.25;;;6.50;;
32523;SDS011;18965;52.242;20.886;2022-07-23T13:31:32;10.27;;;6.82;;
32523;SDS011;18965;52.242;20.886;2022-07-23T13:33:58;7.40;;;6.50;;
32523;SDS011;18965;52.242;20.886;2022-07-23T13:36:24;7.63;;;6.90;;
32523;SDS011;18965;52.242;20.886;2022-07-23T13:38:50;7.05;;;6.32;;
32523;SDS011;18965;52.242;20.886;2022-07-23T13:41:18;7.40;;;6.50;;
32523;SDS011;18965;52.242;20.886;2022-07-23T13:43:44;7.47;;;6.47;;
32523;SDS011;18965;52.242;20.886;2022-07-23T13:46:10;11.73;;;6.93;;
32523;SDS011;18965;52.242;20.886;2022-07-23T13:48:36;9.63;;;6.35;;
32523;SDS011;18965;52.242;20.886;2022-07-23T13:51:02;7.70;;;6.78;;
32523;SDS011;18965;52.242;20.886;2022-07-23T13:53:28;9.30;;;7.25;;
32523;SDS011;18965;52.242;20.886;2022-07-23T13:55:54;8.50;;;6.15;;
32523;SDS011;18965;52.242;20.886;2022-07-23T13:58:20;8.68;;;6.68;;
32523;SDS011;18965;52.242;20.886;2022-07-23T14:00:47;8.73;;;6.70;;
32523;SDS011;18965;52.242;20.886;2022-07-23T14:03:15;8.43;;;6.93;;
32523;SDS011;18965;52.242;20.886;2022-07-23T14:05:42;7.25;;;6.55;;
32523;SDS011;18965;52.242;20.886;2022-07-23T14:08:08;10.15;;;7.10;;
32523;SDS011;18965;52.242;20.886;2022-07-23T14:10:34;7.50;;;6.63;;
32523;SDS011;18965;52.242;20.886;2022-07-23T14:13:00;7.55;;;6.55;;
32523;SDS011;18965;52.242;20.886;2022-07-23T14:15:27;9.35;;;7.30;;
32523;SDS011;18965;52.242;20.886;2022-07-23T14:17:54;11.07;;;7.38;;
32523;SDS011;18965;52.242;20.886;2022-07-23T14:20:20;9.55;;;6.90;;
32523;SDS011;18965;52.242;20.886;2022-07-23T14:22:46;8.32;;;6.97;;
32523;SDS011;18965;52.242;20.886;2022-07-23T14:25:14;8.48;;;7.57;;
32523;SDS011;18965;52.242;20.886;2022-07-23T14:27:40;7.85;;;7.05;;
32523;SDS011;18965;52.242;20.886;2022-07-23T14:30:06;27.40;;;6.75;;
32523;SDS011;18965;52.242;20.886;2022-07-23T14:32:32;30.15;;;5.13;;
32523;SDS011;18965;52.242;20.886;2022-07-23T14:34:58;28.45;;;5.55;;
32523;SDS011;18965;52.242;20.886;2022-07-23T14:37:24;35.88;;;6.07;;
32523;SDS011;18965;52.242;20.886;2022-07-23T14:39:50;17.77;;;4.75;;
32523;SDS011;18965;52.242;20.886;2022-07-23T14:42:16;16.15;;;5.45;;
32523;SDS011;18965;52.242;20.886;2022-07-23T14:44:43;13.20;;;5.22;;
32523;SDS011;18965;52.242;20.886;2022-07-23T14:47:09;7.28;;;5.07;;
32523;SDS011;18965;52.242;20.886;2022-07-23T14:49:38;9.85;;;6.03;;
32523;SDS011;18965;52.242;20.886;2022-07-23T14:52:04;6.68;;;4.10;;
32523;SDS011;18965;52.242;20.886;2022-07-23T14:54:30;7.18;;;4.40;;
32523;SDS011;18965;52.242;20.886;2022-07-23T14:56:58;10.43;;;4.35;;
32523;SDS011;18965;52.242;20.886;2022-07-23T14:59:25;9.45;;;5.75;;
32523;SDS011;18965;52.242;20.886;2022-07-23T15:01:51;10.32;;;6.00;;
32523;SDS011;18965;52.242;20.886;2022-07-23T15:04:17;10.15;;;5.65;;
32523;SDS011;18965;52.242;20.886;2022-07-23T15:06:43;8.40;;;5.70;;
32523;SDS011;18965;52.242;20.886;2022-07-23T15:09:09;9.23;;;5.47;;
32523;SDS011;18965;52.242;20.886;2022-07-23T15:11:35;9.88;;;6.28;;
32523;SDS011;18965;52.242;20.886;2022-07-23T15:14:05;10.43;;;6.28;;
32523;SDS011;18965;52.242;20.886;2022-07-23T15:16:32;9.75;;;6.57;;
32523;SDS011;18965;52.242;20.886;2022-07-23T15:18:58;11.02;;;6.95;;